sensor_id;sensor_type;location;lat;lon;timestamp;temperature;humidity
50804;DHT22;37205;51.434;6.756;2023-06-14T00:00:18;20.50;99.90
50804;DHT22;37205;51.434;6.756;2023-06-14T00:02:45;20.40;99.90
50804;DHT22;37205;51.434;6.756;2023-06-14T00:05:11;20.40;99.90
50804;DHT22;37205;51.434;6.756;2023-06-14T00:07:40;20.30;99.90
50804;DHT22;37205;51.434;6.756;2023-06-14T00:10:10;20.30;99.90
50804;DHT22;37205;51.434;6.756;2023-06-14T00:12:36;20.30;99.90
50804;DHT22;37205;51.434;6.756;2023-06-14T00:15:03;20.30;99.90
50804;DHT22;37205;51.434;6.756;2023-06-14T00:17:28;20.30;99.90
50804;DHT22;37205;51.434;6.756;2023-06-14T00:19:58;20.30;99.90
50804;DHT22;37205;51.434;6.756;2023-06-14T00:22:24;20.20;99.90
50804;DHT22;37205;51.434;6.756;2023-06-14T00:24:52;20.20;99.90
50804;DHT22;37205;51.434;6.756;2023-06-14T00:27:18;20.20;99.90
50804;DHT22;37205;51.434;6.756;2023-06-14T00:29:44;20.20;99.90
50804;DHT22;37205;51.434;6.756;2023-06-14T00:32:09;20.10;99.90
50804;DHT22;37205;51.434;6.756;2023-06-14T00:34:35;20.10;99.90
50804;DHT22;37205;51.434;6.756;2023-06-14T00:37:01;20.10;99.90
50804;DHT22;37205;51.434;6.756;2023-06-14T00:39:27;20.10;99.90
50804;DHT22;37205;51.434;6.756;2023-06-14T00:41:52;20.00;99.90
50804;DHT22;37205;51.434;6.756;2023-06-14T00:44:18;20.00;99.90
50804;DHT22;37205;51.434;6.756;2023-06-14T00:46:47;20.00;99.90
50804;DHT22;37205;51.434;6.756;2023-06-14T00:49:14;19.90;99.90
50804;DHT22;37205;51.434;6.756;2023-06-14T00:51:41;19.90;99.90
50804;DHT22;37205;51.434;6.756;2023-06-14T00:54:08;20.00;99.90
50804;DHT22;37205;51.434;6.756;2023-06-14T00:56:35;19.90;99.90
50804;DHT22;37205;51.434;6.756;2023-06-14T00:59:02;19.70;99.90
50804;DHT22;37205;51.434;6.756;2023-06-14T01:01:29;19.70;99.90
50804;DHT22;37205;51.434;6.756;2023-06-14T01:03:58;19.60;99.90
50804;DHT22;37205;51.434;6.756;2023-06-14T01:06:33;19.60;99.90
50804;DHT22;37205;51.434;6.756;2023-06-14T01:14:18;19.60;99.90
50804;DHT22;37205;51.434;6.756;2023-06-14T01:16:45;19.50;99.90
50804;DHT22;37205;51.434;6.756;2023-06-14T01:19:12;19.50;99.90
50804;DHT22;37205;51.434;6.756;2023-06-14T01:21:39;19.50;99.90
50804;DHT22;37205;51.434;6.756;2023-06-14T01:24:10;19.50;99.90
50804;DHT22;37205;51.434;6.756;2023-06-14T01:26:37;19.50;99.90
50804;DHT22;37205;51.434;6.756;2023-06-14T01:29:04;19.40;99.90
50804;DHT22;37205;51.434;6.756;2023-06-14T01:31:30;19.40;99.90
50804;DHT22;37205;51.434;6.756;2023-06-14T01:34:06;19.40;99.90
50804;DHT22;37205;51.434;6.756;2023-06-14T01:36:32;19.30;99.90
50804;DHT22;37205;51.434;6.756;2023-06-14T01:38:59;19.20;99.90
50804;DHT22;37205;51.434;6.756;2023-06-14T01:41:28;19.20;99.90
50804;DHT22;37205;51.434;6.756;2023-06-14T01:43:55;19.20;99.90
50804;DHT22;37205;51.434;6.756;2023-06-14T01:46:22;19.20;99.90
50804;DHT22;37205;51.434;6.756;2023-06-14T01:48:48;19.10;99.90
50804;DHT22;37205;51.434;6.756;2023-06-14T01:51:14;19.10;99.90
50804;DHT22;37205;51.434;6.756;2023-06-14T01:53:40;19.00;99.90
50804;DHT22;37205;51.434;6.756;2023-06-14T01:56:06;19.10;99.90
50804;DHT22;37205;51.434;6.756;2023-06-14T01:58:32;19.10;99.90
50804;DHT22;37205;51.434;6.756;2023-06-14T02:00:58;19.00;99.90
50804;DHT22;37205;51.434;6.756;2023-06-14T02:03:26;19.00;99.90
50804;DHT22;37205;51.434;6.756;2023-06-14T02:05:51;18.90;99.90
50804;DHT22;37205;51.434;6.756;2023-06-14T02:08:17;18.80;99.90
50804;DHT22;37205;51.434;6.756;2023-06-14T02:10:43;18.70;99.90
50804;DHT22;37205;51.434;6.756;2023-06-14T02:13:09;18.70;99.90
50804;DHT22;37205;51.434;6.756;2023-06-14T02:15:34;18.70;99.90
50804;DHT22;37205;51.434;6.756;2023-06-14T02:18:01;18.60;99.90
50804;DHT22;37205;51.434;6.756;2023-06-14T02:20:27;18.60;99.90
50804;DHT22;37205;51.434;6.756;2023-06-14T02:22:53;18.50;99.90
50804;DHT22;37205;51.434;6.756;2023-06-14T02:25:19;18.50;99.90
50804;DHT22;37205;51.434;6.756;2023-06-14T02:27:45;18.50;99.90
50804;DHT22;37205;51.434;6.756;2023-06-14T02:30:11;18.50;99.90
50804;DHT22;37205;51.434;6.756;2023-06-14T02:32:37;18.50;99.90
50804;DHT22;37205;51.434;6.756;2023-06-14T02:35:04;18.40;99.90
50804;DHT22;37205;51.434;6.756;2023-06-14T02:37:30;18.50;99.90
50804;DHT22;37205;51.434;6.756;2023-06-14T02:39:56;18.40;99.90
50804;DHT22;37205;51.434;6.756;2023-06-14T02:42:21;18.30;99.90
50804;DHT22;37205;51.434;6.756;2023-06-14T02:44:47;18.30;99.90
50804;DHT22;37205;51.434;6.756;2023-06-14T02:47:17;18.30;99.90
50804;DHT22;37205;51.434;6.756;2023-06-14T02:49:43;18.30;99.90
50804;DHT22;37205;51.434;6.756;2023-06-14T02:52:08;18.20;99.90
50804;DHT22;37205;51.434;6.756;2023-06-14T02:54:35;18.20;99.90
50804;DHT22;37205;51.434;6.756;2023-06-14T02:57:01;18.20;99.90
50804;DHT22;37205;51.434;6.756;2023-06-14T02:59:27;18.10;99.90
50804;DHT22;37205;51.434;6.756;2023-06-14T03:01:52;18.10;99.90
50804;DHT22;37205;51.434;6.756;2023-06-14T03:04:18;18.10;99.90
50804;DHT22;37205;51.434;6.756;2023-06-14T03:06:43;18.10;99.90
50804;DHT22;37205;51.434;6.756;2023-06-14T03:09:09;18.10;99.90
50804;DHT22;37205;51.434;6.756;2023-06-14T03:11:35;18.10;99.90
50804;DHT22;37205;51.434;6.756;2023-06-14T03:14:01;18.00;99.90
50804;DHT22;37205;51.434;6.756;2023-06-14T03:16:29;18.10;99.90
50804;DHT22;37205;51.434;6.756;2023-06-14T03:18:55;18.00;99.90
50804;DHT22;37205;51.434;6.756;2023-06-14T03:21:21;17.90;99.90
50804;DHT22;37205;51.434;6.756;2023-06-14T03:23:47;17.90;99.90
50804;DHT22;37205;51.434;6.756;2023-06-14T03:26:14;17.90;99.90
50804;DHT22;37205;51.434;6.756;2023-06-14T03:28:40;17.90;99.90
50804;DHT22;37205;51.434;6.756;2023-06-14T03:31:07;17.80;99.90
50804;DHT22;37205;51.434;6.756;2023-06-14T03:33:34;17.80;99.90
50804;DHT22;37205;51.434;6.756;2023-06-14T03:35:59;17.80;99.90
50804;DHT22;37205;51.434;6.756;2023-06-14T03:38:25;17.70;99.90
50804;DHT22;37205;51.434;6.756;2023-06-14T03:40:51;17.70;99.90
50804;DHT22;37205;51.434;6.756;2023-06-14T03:43:16;17.70;99.90
50804;DHT22;37205;51.434;6.756;2023-06-14T03:45:42;17.70;99.90
50804;DHT22;37205;51.434;6.756;2023-06-14T03:48:09;17.70;99.90
50804;DHT22;37205;51.434;6.756;2023-06-14T03:50:35;17.70;99.90
50804;DHT22;37205;51.434;6.756;2023-06-14T03:53:03;17.70;99.90
50804;DHT22;37205;51.434;6.756;2023-06-14T03:55:29;17.70;99.90
50804;DHT22;37205;51.434;6.756;2023-06-14T03:57:57;17.70;99.90
50804;DHT22;37205;51.434;6.756;2023-06-14T04:00:22;17.70;99.90
50804;DHT22;37205;51.434;6.756;2023-06-14T04:02:48;17.70;99.90
50804;DHT22;37205;51.434;6.756;2023-06-14T04:05:14;17.70;99.90
50804;DHT22;37205;51.434;6.756;2023-06-14T04:07:42;17.70;99.90
50804;DHT22;37205;51.434;6.756;2023-06-14T04:10:11;17.70;99.90
50804;DHT22;37205;51.434;6.756;2023-06-14T04:12:36;17.70;99.90
50804;DHT22;37205;51.434;6.756;2023-06-14T04:15:02;17.70;99.90
50804;DHT22;37205;51.434;6.756;2023-06-14T04:17:29;17.70;99.90
50804;DHT22;37205;51.434;6.756;2023-06-14T04:19:55;17.70;99.90
50804;DHT22;37205;51.434;6.756;2023-06-14T04:22:20;17.70;99.90
50804;DHT22;37205;51.434;6.756;2023-06-14T04:24:46;17.70;99.90
50804;DHT22;37205;51.434;6.756;2023-06-14T04:27:11;17.70;99.90
50804;DHT22;37205;51.434;6.756;2023-06-14T04:29:37;17.70;99.90
50804;DHT22;37205;51.434;6.756;2023-06-14T04:32:04;17.70;99.90
50804;DHT22;37205;51.434;6.756;2023-06-14T04:34:32;17.80;99.90
50804;DHT22;37205;51.434;6.756;2023-06-14T04:36:59;17.80;99.90
50804;DHT22;37205;51.434;6.756;2023-06-14T04:39:26;17.80;99.90
50804;DHT22;37205;51.434;6.756;2023-06-14T04:41:53;17.90;99.90
50804;DHT22;37205;51.434;6.756;2023-06-14T04:44:23;17.90;99.90
50804;DHT22;37205;51.434;6.756;2023-06-14T04:46:56;17.90;99.90
50804;DHT22;37205;51.434;6.756;2023-06-14T04:49:21;17.90;99.90
50804;DHT22;37205;51.434;6.756;2023-06-14T04:51:49;18.00;99.90
50804;DHT22;37205;51.434;6.756;2023-06-14T04:54:23;18.00;99.90
50804;DHT22;37205;51.434;6.756;2023-06-14T04:56:50;18.10;99.90
50804;DHT22;37205;51.434;6.756;2023-06-14T04:59:16;18.20;99.90
50804;DHT22;37205;51.434;6.756;2023-06-14T05:01:42;18.20;99.90
50804;DHT22;37205;51.434;6.756;2023-06-14T05:04:14;18.30;99.90
50804;DHT22;37205;51.434;6.756;2023-06-14T05:06:41;18.30;99.90
50804;DHT22;37205;51.434;6.756;2023-06-14T05:09:07;18.30;99.90
50804;DHT22;37205;51.434;6.756;2023-06-14T05:11:33;18.30;99.90
50804;DHT22;37205;51.434;6.756;2023-06-14T05:13:58;18.30;99.90
50804;DHT22;37205;51.434;6.756;2023-06-14T05:16:26;18.30;99.90
50804;DHT22;37205;51.434;6.756;2023-06-14T05:18:52;18.40;99.90
50804;DHT22;37205;51.434;6.756;2023-06-14T05:21:18;18.40;99.90
50804;DHT22;37205;51.434;6.756;2023-06-14T05:23:44;18.50;99.90
50804;DHT22;37205;51.434;6.756;2023-06-14T05:26:10;18.50;99.90
50804;DHT22;37205;51.434;6.756;2023-06-14T05:28:36;18.60;99.90
50804;DHT22;37205;51.434;6.756;2023-06-14T05:31:02;18.60;99.90
50804;DHT22;37205;51.434;6.756;2023-06-14T05:33:27;18.70;99.90
50804;DHT22;37205;51.434;6.756;2023-06-14T05:35:53;18.70;99.90
50804;DHT22;37205;51.434;6.756;2023-06-14T05:38:19;18.80;99.90
50804;DHT22;37205;51.434;6.756;2023-06-14T05:40:44;18.80;99.90
50804;DHT22;37205;51.434;6.756;2023-06-14T05:43:10;18.90;99.90
50804;DHT22;37205;51.434;6.756;2023-06-14T05:45:36;19.00;99.90
50804;DHT22;37205;51.434;6.756;2023-06-14T05:48:01;19.00;99.90
50804;DHT22;37205;51.434;6.756;2023-06-14T05:50:27;19.00;99.90
50804;DHT22;37205;51.434;6.756;2023-06-14T05:52:53;19.10;99.90
50804;DHT22;37205;51.434;6.756;2023-06-14T05:55:19;19.30;99.90
50804;DHT22;37205;51.434;6.756;2023-06-14T05:57:45;19.30;99.90
50804;DHT22;37205;51.434;6.756;2023-06-14T06:00:11;19.30;99.90
50804;DHT22;37205;51.434;6.756;2023-06-14T06:02:42;19.40;99.90
50804;DHT22;37205;51.434;6.756;2023-06-14T06:05:09;19.50;99.90
50804;DHT22;37205;51.434;6.756;2023-06-14T06:07:35;19.60;99.90
50804;DHT22;37205;51.434;6.756;2023-06-14T06:10:01;19.70;99.90
50804;DHT22;37205;51.434;6.756;2023-06-14T06:12:26;19.80;99.90
50804;DHT22;37205;51.434;6.756;2023-06-14T06:14:52;19.90;99.90
50804;DHT22;37205;51.434;6.756;2023-06-14T06:17:17;19.90;99.90
50804;DHT22;37205;51.434;6.756;2023-06-14T06:19:43;20.10;99.90
50804;DHT22;37205;51.434;6.756;2023-06-14T06:22:09;20.20;99.90
50804;DHT22;37205;51.434;6.756;2023-06-14T06:24:34;20.30;99.90
50804;DHT22;37205;51.434;6.756;2023-06-14T06:27:00;20.40;99.90
50804;DHT22;37205;51.434;6.756;2023-06-14T06:29:25;20.50;99.90
50804;DHT22;37205;51.434;6.756;2023-06-14T06:31:51;20.60;99.90
50804;DHT22;37205;51.434;6.756;2023-06-14T06:34:17;20.70;99.90
50804;DHT22;37205;51.434;6.756;2023-06-14T06:36:42;20.80;99.90
50804;DHT22;37205;51.434;6.756;2023-06-14T06:39:08;20.80;99.90
50804;DHT22;37205;51.434;6.756;2023-06-14T06:41:38;20.80;99.90
50804;DHT22;37205;51.434;6.756;2023-06-14T06:44:05;20.80;99.90
50804;DHT22;37205;51.434;6.756;2023-06-14T06:46:32;20.90;99.90
50804;DHT22;37205;51.434;6.756;2023-06-14T06:48:57;21.00;99.90
50804;DHT22;37205;51.434;6.756;2023-06-14T06:51:23;21.00;99.90
50804;DHT22;37205;51.434;6.756;2023-06-14T06:53:53;21.10;99.90
50804;DHT22;37205;51.434;6.756;2023-06-14T06:56:19;21.10;99.90
50804;DHT22;37205;51.434;6.756;2023-06-14T06:58:45;21.10;99.90
50804;DHT22;37205;51.434;6.756;2023-06-14T07:01:10;21.20;99.90
50804;DHT22;37205;51.434;6.756;2023-06-14T07:03:37;21.30;99.90
50804;DHT22;37205;51.434;6.756;2023-06-14T07:06:02;21.30;99.90
50804;DHT22;37205;51.434;6.756;2023-06-14T07:08:28;21.30;99.90
50804;DHT22;37205;51.434;6.756;2023-06-14T07:10:53;21.30;99.90
50804;DHT22;37205;51.434;6.756;2023-06-14T07:13:19;21.30;99.90
50804;DHT22;37205;51.434;6.756;2023-06-14T07:15:45;21.50;99.90
50804;DHT22;37205;51.434;6.756;2023-06-14T07:18:11;21.50;99.90
50804;DHT22;37205;51.434;6.756;2023-06-14T07:20:37;21.60;99.90
50804;DHT22;37205;51.434;6.756;2023-06-14T07:23:04;21.70;99.90
50804;DHT22;37205;51.434;6.756;2023-06-14T07:25:30;21.70;99.90
50804;DHT22;37205;51.434;6.756;2023-06-14T07:27:56;21.80;99.90
50804;DHT22;37205;51.434;6.756;2023-06-14T07:30:21;21.90;99.90
50804;DHT22;37205;51.434;6.756;2023-06-14T07:32:54;21.90;99.90
50804;DHT22;37205;51.434;6.756;2023-06-14T07:35:19;22.00;99.90
50804;DHT22;37205;51.434;6.756;2023-06-14T07:37:45;22.20;99.90
50804;DHT22;37205;51.434;6.756;2023-06-14T07:40:12;22.30;99.90
50804;DHT22;37205;51.434;6.756;2023-06-14T07:42:38;22.30;99.90
50804;DHT22;37205;51.434;6.756;2023-06-14T07:45:04;22.30;99.90
50804;DHT22;37205;51.434;6.756;2023-06-14T07:47:31;22.30;99.90
50804;DHT22;37205;51.434;6.756;2023-06-14T07:49:57;22.40;99.90
50804;DHT22;37205;51.434;6.756;2023-06-14T07:52:22;22.40;99.90
50804;DHT22;37205;51.434;6.756;2023-06-14T07:54:48;22.50;99.90
50804;DHT22;37205;51.434;6.756;2023-06-14T07:57:13;22.50;99.90
50804;DHT22;37205;51.434;6.756;2023-06-14T07:59:39;22.60;99.90
50804;DHT22;37205;51.434;6.756;2023-06-14T08:02:05;22.50;99.90
50804;DHT22;37205;51.434;6.756;2023-06-14T08:04:31;22.60;99.90
50804;DHT22;37205;51.434;6.756;2023-06-14T08:06:57;22.70;99.90
50804;DHT22;37205;51.434;6.756;2023-06-14T08:09:24;22.60;99.90
50804;DHT22;37205;51.434;6.756;2023-06-14T08:11:50;22.50;99.90
50804;DHT22;37205;51.434;6.756;2023-06-14T08:14:16;22.60;99.90
50804;DHT22;37205;51.434;6.756;2023-06-14T08:16:41;22.70;99.90
50804;DHT22;37205;51.434;6.756;2023-06-14T08:19:07;22.70;99.90
50804;DHT22;37205;51.434;6.756;2023-06-14T08:21:33;22.80;99.90
50804;DHT22;37205;51.434;6.756;2023-06-14T08:23:58;22.70;99.90
50804;DHT22;37205;51.434;6.756;2023-06-14T08:26:24;22.80;99.90
50804;DHT22;37205;51.434;6.756;2023-06-14T08:28:54;22.90;99.90
50804;DHT22;37205;51.434;6.756;2023-06-14T08:31:20;22.90;99.90
50804;DHT22;37205;51.434;6.756;2023-06-14T08:33:46;22.90;99.90
50804;DHT22;37205;51.434;6.756;2023-06-14T08:36:11;22.90;99.90
50804;DHT22;37205;51.434;6.756;2023-06-14T08:38:38;23.00;99.90
50804;DHT22;37205;51.434;6.756;2023-06-14T08:41:05;22.90;99.90
50804;DHT22;37205;51.434;6.756;2023-06-14T08:43:32;23.00;99.90
50804;DHT22;37205;51.434;6.756;2023-06-14T08:46:03;23.10;99.90
50804;DHT22;37205;51.434;6.756;2023-06-14T08:48:28;23.20;99.90
50804;DHT22;37205;51.434;6.756;2023-06-14T08:50:56;23.10;99.90
50804;DHT22;37205;51.434;6.756;2023-06-14T08:53:28;23.20;99.90
50804;DHT22;37205;51.434;6.756;2023-06-14T08:55:54;23.20;99.90
50804;DHT22;37205;51.434;6.756;2023-06-14T08:58:21;23.10;99.90
50804;DHT22;37205;51.434;6.756;2023-06-14T09:00:49;23.10;99.90
50804;DHT22;37205;51.434;6.756;2023-06-14T09:03:17;23.10;99.90
50804;DHT22;37205;51.434;6.756;2023-06-14T09:05:46;23.10;99.90
50804;DHT22;37205;51.434;6.756;2023-06-14T09:08:12;23.10;99.90
50804;DHT22;37205;51.434;6.756;2023-06-14T09:10:39;23.10;99.90
50804;DHT22;37205;51.434;6.756;2023-06-14T09:13:05;23.20;99.90
50804;DHT22;37205;51.434;6.756;2023-06-14T09:15:31;23.20;99.90
50804;DHT22;37205;51.434;6.756;2023-06-14T09:17:57;23.30;99.90
50804;DHT22;37205;51.434;6.756;2023-06-14T09:20:25;23.30;99.90
50804;DHT22;37205;51.434;6.756;2023-06-14T09:22:50;23.20;99.90
50804;DHT22;37205;51.434;6.756;2023-06-14T09:25:16;23.20;99.90
50804;DHT22;37205;51.434;6.756;2023-06-14T09:27:42;23.10;99.90
50804;DHT22;37205;51.434;6.756;2023-06-14T09:30:11;23.10;99.90
50804;DHT22;37205;51.434;6.756;2023-06-14T09:32:38;23.10;99.90
50804;DHT22;37205;51.434;6.756;2023-06-14T09:35:06;23.10;99.90
50804;DHT22;37205;51.434;6.756;2023-06-14T09:37:32;23.20;99.90
50804;DHT22;37205;51.434;6.756;2023-06-14T09:39:59;23.30;99.90
50804;DHT22;37205;51.434;6.756;2023-06-14T09:42:25;23.40;99.90
50804;DHT22;37205;51.434;6.756;2023-06-14T09:44:52;23.40;99.90
50804;DHT22;37205;51.434;6.756;2023-06-14T09:47:19;23.40;99.90
50804;DHT22;37205;51.434;6.756;2023-06-14T09:49:45;23.40;99.90
50804;DHT22;37205;51.434;6.756;2023-06-14T09:52:17;23.40;99.90
50804;DHT22;37205;51.434;6.756;2023-06-14T09:54:44;23.40;99.90
50804;DHT22;37205;51.434;6.756;2023-06-14T09:57:16;23.50;99.90
50804;DHT22;37205;51.434;6.756;2023-06-14T09:59:46;23.40;99.90
50804;DHT22;37205;51.434;6.756;2023-06-14T10:04:46;23.60;99.90
50804;DHT22;37205;51.434;6.756;2023-06-14T10:07:19;23.60;99.90
50804;DHT22;37205;51.434;6.756;2023-06-14T10:09:46;23.60;99.90
50804;DHT22;37205;51.434;6.756;2023-06-14T10:12:16;23.60;99.90
50804;DHT22;37205;51.434;6.756;2023-06-14T10:14:48;23.60;99.90
50804;DHT22;37205;51.434;6.756;2023-06-14T10:17:33;23.60;99.90
50804;DHT22;37205;51.434;6.756;2023-06-14T10:20:27;23.50;99.90
50804;DHT22;37205;51.434;6.756;2023-06-14T10:23:17;23.50;99.90
50804;DHT22;37205;51.434;6.756;2023-06-14T10:25:50;23.60;99.90
50804;DHT22;37205;51.434;6.756;2023-06-14T10:28:20;23.60;99.90
50804;DHT22;37205;51.434;6.756;2023-06-14T10:31:06;23.60;99.90
50804;DHT22;37205;51.434;6.756;2023-06-14T10:33:33;23.70;99.90
50804;DHT22;37205;51.434;6.756;2023-06-14T10:36:24;23.70;99.90
50804;DHT22;37205;51.434;6.756;2023-06-14T10:39:15;23.70;99.90
50804;DHT22;37205;51.434;6.756;2023-06-14T10:41:41;23.80;99.90
50804;DHT22;37205;51.434;6.756;2023-06-14T10:46:39;23.90;99.90
50804;DHT22;37205;51.434;6.756;2023-06-14T10:49:05;24.00;99.90
50804;DHT22;37205;51.434;6.756;2023-06-14T10:51:42;24.10;99.90
50804;DHT22;37205;51.434;6.756;2023-06-14T10:54:15;24.10;99.90
50804;DHT22;37205;51.434;6.756;2023-06-14T10:56:48;24.10;99.90
50804;DHT22;37205;51.434;6.756;2023-06-14T10:59:14;24.20;99.90
50804;DHT22;37205;51.434;6.756;2023-06-14T11:04:52;24.30;99.90
50804;DHT22;37205;51.434;6.756;2023-06-14T11:07:52;24.40;99.90
50804;DHT22;37205;51.434;6.756;2023-06-14T11:10:35;24.40;99.90
50804;DHT22;37205;51.434;6.756;2023-06-14T11:13:02;24.50;99.90
50804;DHT22;37205;51.434;6.756;2023-06-14T11:15:29;24.50;99.90
50804;DHT22;37205;51.434;6.756;2023-06-14T11:17:55;24.60;99.90
50804;DHT22;37205;51.434;6.756;2023-06-14T11:20:25;24.60;99.90
50804;DHT22;37205;51.434;6.756;2023-06-14T11:22:52;24.60;99.90
50804;DHT22;37205;51.434;6.756;2023-06-14T11:25:17;24.60;99.90
50804;DHT22;37205;51.434;6.756;2023-06-14T11:27:43;24.50;99.90
50804;DHT22;37205;51.434;6.756;2023-06-14T11:30:10;24.70;99.90
50804;DHT22;37205;51.434;6.756;2023-06-14T11:32:37;24.70;99.90
50804;DHT22;37205;51.434;6.756;2023-06-14T11:35:03;24.70;99.90
50804;DHT22;37205;51.434;6.756;2023-06-14T11:37:30;24.60;99.90
50804;DHT22;37205;51.434;6.756;2023-06-14T11:39:57;24.70;99.90
50804;DHT22;37205;51.434;6.756;2023-06-14T11:42:24;24.80;99.90
50804;DHT22;37205;51.434;6.756;2023-06-14T11:44:49;24.80;99.90
50804;DHT22;37205;51.434;6.756;2023-06-14T11:47:15;24.90;99.90
50804;DHT22;37205;51.434;6.756;2023-06-14T11:49:41;24.80;99.90
50804;DHT22;37205;51.434;6.756;2023-06-14T11:52:07;24.80;99.90
50804;DHT22;37205;51.434;6.756;2023-06-14T11:54:33;24.90;99.90
50804;DHT22;37205;51.434;6.756;2023-06-14T11:56:59;25.00;99.90
50804;DHT22;37205;51.434;6.756;2023-06-14T11:59:25;25.00;99.90
50804;DHT22;37205;51.434;6.756;2023-06-14T12:01:52;25.00;99.90
50804;DHT22;37205;51.434;6.756;2023-06-14T12:04:26;25.10;99.90
50804;DHT22;37205;51.434;6.756;2023-06-14T12:06:52;25.10;99.90
50804;DHT22;37205;51.434;6.756;2023-06-14T12:09:21;25.10;99.90
50804;DHT22;37205;51.434;6.756;2023-06-14T12:11:49;25.10;99.90
50804;DHT22;37205;51.434;6.756;2023-06-14T12:14:15;25.10;99.90
50804;DHT22;37205;51.434;6.756;2023-06-14T12:16:42;25.20;99.90
50804;DHT22;37205;51.434;6.756;2023-06-14T12:19:09;25.20;99.90
50804;DHT22;37205;51.434;6.756;2023-06-14T12:21:37;25.20;99.90
50804;DHT22;37205;51.434;6.756;2023-06-14T12:24:04;25.20;99.90
50804;DHT22;37205;51.434;6.756;2023-06-14T12:26:32;25.20;99.90
50804;DHT22;37205;51.434;6.756;2023-06-14T12:28:58;25.30;99.90
50804;DHT22;37205;51.434;6.756;2023-06-14T12:31:24;25.20;99.90
50804;DHT22;37205;51.434;6.756;2023-06-14T12:33:50;25.30;99.90
50804;DHT22;37205;51.434;6.756;2023-06-14T12:36:16;25.40;99.90
50804;DHT22;37205;51.434;6.756;2023-06-14T12:38:42;25.60;99.90
50804;DHT22;37205;51.434;6.756;2023-06-14T12:41:08;25.50;99.90
50804;DHT22;37205;51.434;6.756;2023-06-14T12:43:34;25.60;99.90
50804;DHT22;37205;51.434;6.756;2023-06-14T12:46:00;25.80;99.90
50804;DHT22;37205;51.434;6.756;2023-06-14T12:48:26;25.90;99.90
50804;DHT22;37205;51.434;6.756;2023-06-14T12:50:56;25.90;99.90
50804;DHT22;37205;51.434;6.756;2023-06-14T12:53:22;25.80;99.90
50804;DHT22;37205;51.434;6.756;2023-06-14T12:55:48;25.90;99.90
50804;DHT22;37205;51.434;6.756;2023-06-14T12:58:14;26.10;99.90
50804;DHT22;37205;51.434;6.756;2023-06-14T13:00:42;26.20;99.90
50804;DHT22;37205;51.434;6.756;2023-06-14T13:03:08;26.20;99.90
50804;DHT22;37205;51.434;6.756;2023-06-14T13:05:33;26.30;99.90
50804;DHT22;37205;51.434;6.756;2023-06-14T13:08:00;26.40;99.90
50804;DHT22;37205;51.434;6.756;2023-06-14T13:10:26;26.50;99.90
50804;DHT22;37205;51.434;6.756;2023-06-14T13:12:51;26.60;99.90
50804;DHT22;37205;51.434;6.756;2023-06-14T13:15:17;26.70;99.90
50804;DHT22;37205;51.434;6.756;2023-06-14T13:17:42;26.80;99.90
50804;DHT22;37205;51.434;6.756;2023-06-14T13:20:13;26.70;99.90
50804;DHT22;37205;51.434;6.756;2023-06-14T13:22:39;26.80;99.90
50804;DHT22;37205;51.434;6.756;2023-06-14T13:25:05;27.00;99.90
50804;DHT22;37205;51.434;6.756;2023-06-14T13:27:31;27.10;99.90
50804;DHT22;37205;51.434;6.756;2023-06-14T13:29:57;27.10;99.90
50804;DHT22;37205;51.434;6.756;2023-06-14T13:32:23;27.20;99.90
50804;DHT22;37205;51.434;6.756;2023-06-14T13:34:49;27.30;99.90
50804;DHT22;37205;51.434;6.756;2023-06-14T13:37:15;27.40;99.90
50804;DHT22;37205;51.434;6.756;2023-06-14T13:39:41;27.60;99.90
50804;DHT22;37205;51.434;6.756;2023-06-14T13:42:07;27.60;99.90
50804;DHT22;37205;51.434;6.756;2023-06-14T13:44:32;27.70;99.90
50804;DHT22;37205;51.434;6.756;2023-06-14T13:46:58;27.90;99.90
50804;DHT22;37205;51.434;6.756;2023-06-14T13:49:23;28.00;99.90
50804;DHT22;37205;51.434;6.756;2023-06-14T13:51:49;28.30;99.90
50804;DHT22;37205;51.434;6.756;2023-06-14T13:54:17;28.30;99.90
50804;DHT22;37205;51.434;6.756;2023-06-14T13:56:44;28.80;99.90
50804;DHT22;37205;51.434;6.756;2023-06-14T13:59:10;29.10;99.90
50804;DHT22;37205;51.434;6.756;2023-06-14T14:01:36;29.40;99.90
50804;DHT22;37205;51.434;6.756;2023-06-14T14:04:01;29.90;99.90
50804;DHT22;37205;51.434;6.756;2023-06-14T14:06:27;30.20;99.90
50804;DHT22;37205;51.434;6.756;2023-06-14T14:08:52;30.60;99.90
50804;DHT22;37205;51.434;6.756;2023-06-14T14:11:19;30.70;99.90
50804;DHT22;37205;51.434;6.756;2023-06-14T14:13:46;31.10;99.90
50804;DHT22;37205;51.434;6.756;2023-06-14T14:16:12;31.50;99.90
50804;DHT22;37205;51.434;6.756;2023-06-14T14:18:38;31.30;99.90
50804;DHT22;37205;51.434;6.756;2023-06-14T14:21:04;31.60;99.90
50804;DHT22;37205;51.434;6.756;2023-06-14T14:23:30;32.10;99.90
50804;DHT22;37205;51.434;6.756;2023-06-14T14:25:56;32.30;99.90
50804;DHT22;37205;51.434;6.756;2023-06-14T14:28:22;32.10;99.90
50804;DHT22;37205;51.434;6.756;2023-06-14T14:30:48;31.80;99.90
50804;DHT22;37205;51.434;6.756;2023-06-14T14:33:14;31.70;99.90
50804;DHT22;37205;51.434;6.756;2023-06-14T14:35:46;32.00;99.90
50804;DHT22;37205;51.434;6.756;2023-06-14T14:38:12;32.40;99.90
50804;DHT22;37205;51.434;6.756;2023-06-14T14:40:39;32.40;99.90
50804;DHT22;37205;51.434;6.756;2023-06-14T14:43:06;32.20;99.90
50804;DHT22;37205;51.434;6.756;2023-06-14T14:45:31;31.90;99.90
50804;DHT22;37205;51.434;6.756;2023-06-14T14:47:57;31.80;99.90
50804;DHT22;37205;51.434;6.756;2023-06-14T14:50:23;31.60;99.90
50804;DHT22;37205;51.434;6.756;2023-06-14T14:52:48;31.80;99.90
50804;DHT22;37205;51.434;6.756;2023-06-14T14:55:14;31.60;99.90
50804;DHT22;37205;51.434;6.756;2023-06-14T14:57:39;31.60;99.90
50804;DHT22;37205;51.434;6.756;2023-06-14T15:00:06;31.30;99.90
50804;DHT22;37205;51.434;6.756;2023-06-14T15:02:31;31.40;99.90
50804;DHT22;37205;51.434;6.756;2023-06-14T15:04:57;31.90;99.90
50804;DHT22;37205;51.434;6.756;2023-06-14T15:07:26;31.80;99.90
50804;DHT22;37205;51.434;6.756;2023-06-14T15:09:53;32.30;99.90
50804;DHT22;37205;51.434;6.756;2023-06-14T15:12:18;32.40;99.90
50804;DHT22;37205;51.434;6.756;2023-06-14T15:14:45;32.10;99.90
50804;DHT22;37205;51.434;6.756;2023-06-14T15:17:11;32.30;99.90
50804;DHT22;37205;51.434;6.756;2023-06-14T15:19:37;32.20;99.90
50804;DHT22;37205;51.434;6.756;2023-06-14T15:22:03;31.90;99.90
50804;DHT22;37205;51.434;6.756;2023-06-14T15:24:28;31.80;99.90
50804;DHT22;37205;51.434;6.756;2023-06-14T15:26:56;31.70;99.90
50804;DHT22;37205;51.434;6.756;2023-06-14T15:29:21;31.70;99.90
50804;DHT22;37205;51.434;6.756;2023-06-14T15:31:47;31.80;99.90
50804;DHT22;37205;51.434;6.756;2023-06-14T15:34:14;31.70;99.90
50804;DHT22;37205;51.434;6.756;2023-06-14T15:36:39;31.30;99.90
50804;DHT22;37205;51.434;6.756;2023-06-14T15:39:05;31.10;99.90
50804;DHT22;37205;51.434;6.756;2023-06-14T15:41:31;31.20;99.90